sensor_id;sensor_type;location;lat;lon;timestamp;temperature;humidity
38582;DHT22;24349;53.720;10.014;2023-02-23T00:00:37;7.50;99.90
38582;DHT22;24349;53.720;10.014;2023-02-23T00:03:03;7.60;99.90
38582;DHT22;24349;53.720;10.014;2023-02-23T00:05:30;7.50;99.90
38582;DHT22;24349;53.720;10.014;2023-02-23T00:07:56;7.50;99.90
38582;DHT22;24349;53.720;10.014;2023-02-23T00:10:22;7.50;99.90
38582;DHT22;24349;53.720;10.014;2023-02-23T00:12:56;7.50;99.90
38582;DHT22;24349;53.720;10.014;2023-02-23T00:15:22;7.50;99.90
38582;DHT22;24349;53.720;10.014;2023-02-23T00:17:57;7.40;99.90
38582;DHT22;24349;53.720;10.014;2023-02-23T00:20:24;7.40;99.90
38582;DHT22;24349;53.720;10.014;2023-02-23T00:22:56;7.40;99.90
38582;DHT22;24349;53.720;10.014;2023-02-23T00:25:23;7.30;99.90
38582;DHT22;24349;53.720;10.014;2023-02-23T00:27:50;7.30;99.90
38582;DHT22;24349;53.720;10.014;2023-02-23T00:30:17;7.30;99.90
38582;DHT22;24349;53.720;10.014;2023-02-23T00:32:44;7.30;99.90
38582;DHT22;24349;53.720;10.014;2023-02-23T00:35:10;7.20;99.90
38582;DHT22;24349;53.720;10.014;2023-02-23T00:37:45;7.30;99.90
38582;DHT22;24349;53.720;10.014;2023-02-23T00:40:13;7.20;99.90
38582;DHT22;24349;53.720;10.014;2023-02-23T00:42:41;7.20;99.90
38582;DHT22;24349;53.720;10.014;2023-02-23T00:45:07;7.20;99.90
38582;DHT22;24349;53.720;10.014;2023-02-23T00:47:35;7.20;99.90
38582;DHT22;24349;53.720;10.014;2023-02-23T00:50:01;7.20;99.90
38582;DHT22;24349;53.720;10.014;2023-02-23T00:52:26;7.20;99.90
38582;DHT22;24349;53.720;10.014;2023-02-23T00:54:53;7.20;99.90
38582;DHT22;24349;53.720;10.014;2023-02-23T00:57:20;7.20;99.90
38582;DHT22;24349;53.720;10.014;2023-02-23T00:59:47;7.20;99.90
38582;DHT22;24349;53.720;10.014;2023-02-23T01:02:12;7.20;99.90
38582;DHT22;24349;53.720;10.014;2023-02-23T01:04:38;7.10;99.90
38582;DHT22;24349;53.720;10.014;2023-02-23T01:07:04;7.10;99.90
38582;DHT22;24349;53.720;10.014;2023-02-23T01:09:31;7.10;99.90
38582;DHT22;24349;53.720;10.014;2023-02-23T01:11:57;7.10;99.90
38582;DHT22;24349;53.720;10.014;2023-02-23T01:14:26;7.10;99.90
38582;DHT22;24349;53.720;10.014;2023-02-23T01:16:53;7.10;99.90
38582;DHT22;24349;53.720;10.014;2023-02-23T01:19:19;7.10;99.90
38582;DHT22;24349;53.720;10.014;2023-02-23T01:21:45;7.10;99.90
38582;DHT22;24349;53.720;10.014;2023-02-23T01:24:11;7.10;99.90
38582;DHT22;24349;53.720;10.014;2023-02-23T01:26:42;7.00;99.90
38582;DHT22;24349;53.720;10.014;2023-02-23T01:29:14;7.00;99.90
38582;DHT22;24349;53.720;10.014;2023-02-23T01:31:42;7.00;99.90
38582;DHT22;24349;53.720;10.014;2023-02-23T01:34:10;7.00;99.90
38582;DHT22;24349;53.720;10.014;2023-02-23T01:36:38;7.00;99.90
38582;DHT22;24349;53.720;10.014;2023-02-23T01:39:06;7.00;99.90
38582;DHT22;24349;53.720;10.014;2023-02-23T01:41:34;6.90;99.90
38582;DHT22;24349;53.720;10.014;2023-02-23T01:44:06;6.90;99.90
38582;DHT22;24349;53.720;10.014;2023-02-23T01:46:34;6.90;99.90
38582;DHT22;24349;53.720;10.014;2023-02-23T01:49:00;6.90;99.90
38582;DHT22;24349;53.720;10.014;2023-02-23T01:51:30;6.90;99.90
38582;DHT22;24349;53.720;10.014;2023-02-23T01:54:14;7.00;99.90
38582;DHT22;24349;53.720;10.014;2023-02-23T01:56:46;7.00;99.90
38582;DHT22;24349;53.720;10.014;2023-02-23T02:01:55;7.10;99.90
38582;DHT22;24349;53.720;10.014;2023-02-23T02:04:21;7.10;99.90
38582;DHT22;24349;53.720;10.014;2023-02-23T02:06:50;7.10;99.90
38582;DHT22;24349;53.720;10.014;2023-02-23T02:09:19;7.00;99.90
38582;DHT22;24349;53.720;10.014;2023-02-23T02:11:50;7.00;99.90
38582;DHT22;24349;53.720;10.014;2023-02-23T02:14:26;7.00;99.90
38582;DHT22;24349;53.720;10.014;2023-02-23T02:33:46;6.90;99.90
38582;DHT22;24349;53.720;10.014;2023-02-23T02:44:40;6.80;99.90
38582;DHT22;24349;53.720;10.014;2023-02-23T02:47:11;6.90;99.90
38582;DHT22;24349;53.720;10.014;2023-02-23T02:49:55;6.90;99.90
38582;DHT22;24349;53.720;10.014;2023-02-23T02:52:37;6.90;99.90
38582;DHT22;24349;53.720;10.014;2023-02-23T02:55:14;6.90;99.90
38582;DHT22;24349;53.720;10.014;2023-02-23T02:57:42;6.90;99.90
38582;DHT22;24349;53.720;10.014;2023-02-23T03:00:17;7.10;99.90
38582;DHT22;24349;53.720;10.014;2023-02-23T03:03:01;7.10;99.90
38582;DHT22;24349;53.720;10.014;2023-02-23T03:05:51;7.20;99.90
38582;DHT22;24349;53.720;10.014;2023-02-23T03:08:59;7.30;99.90
38582;DHT22;24349;53.720;10.014;2023-02-23T03:11:57;7.30;99.90
38582;DHT22;24349;53.720;10.014;2023-02-23T03:15:05;7.40;99.90
38582;DHT22;24349;53.720;10.014;2023-02-23T03:18:20;7.40;99.90
38582;DHT22;24349;53.720;10.014;2023-02-23T03:21:14;7.40;99.90
38582;DHT22;24349;53.720;10.014;2023-02-23T03:27:04;7.40;99.90
38582;DHT22;24349;53.720;10.014;2023-02-23T03:30:46;7.50;99.90
38582;DHT22;24349;53.720;10.014;2023-02-23T03:34:51;7.60;99.90
38582;DHT22;24349;53.720;10.014;2023-02-23T03:37:23;7.60;99.90
38582;DHT22;24349;53.720;10.014;2023-02-23T03:40:17;7.60;99.90
38582;DHT22;24349;53.720;10.014;2023-02-23T03:43:07;7.60;99.90
38582;DHT22;24349;53.720;10.014;2023-02-23T03:45:55;7.60;99.90
38582;DHT22;24349;53.720;10.014;2023-02-23T03:48:42;7.60;99.90
38582;DHT22;24349;53.720;10.014;2023-02-23T03:51:30;7.70;99.90
38582;DHT22;24349;53.720;10.014;2023-02-23T03:54:24;7.70;99.90
38582;DHT22;24349;53.720;10.014;2023-02-23T03:57:11;7.70;99.90
38582;DHT22;24349;53.720;10.014;2023-02-23T04:00:02;7.70;99.90
38582;DHT22;24349;53.720;10.014;2023-02-23T04:02:49;7.70;99.90
38582;DHT22;24349;53.720;10.014;2023-02-23T04:05:38;7.70;99.90
38582;DHT22;24349;53.720;10.014;2023-02-23T04:08:28;7.80;99.90
38582;DHT22;24349;53.720;10.014;2023-02-23T04:11:18;7.80;99.90
38582;DHT22;24349;53.720;10.014;2023-02-23T04:14:07;7.80;99.90
38582;DHT22;24349;53.720;10.014;2023-02-23T04:16:37;7.80;99.90
38582;DHT22;24349;53.720;10.014;2023-02-23T04:19:03;7.90;99.90
38582;DHT22;24349;53.720;10.014;2023-02-23T04:21:30;7.90;99.90
38582;DHT22;24349;53.720;10.014;2023-02-23T04:23:55;7.90;99.90
38582;DHT22;24349;53.720;10.014;2023-02-23T04:26:21;7.90;99.90
38582;DHT22;24349;53.720;10.014;2023-02-23T04:28:47;8.00;99.90
38582;DHT22;24349;53.720;10.014;2023-02-23T04:31:12;8.10;99.90
38582;DHT22;24349;53.720;10.014;2023-02-23T04:33:38;8.00;99.90
38582;DHT22;24349;53.720;10.014;2023-02-23T04:36:04;8.00;99.90
38582;DHT22;24349;53.720;10.014;2023-02-23T04:38:29;8.10;99.90
38582;DHT22;24349;53.720;10.014;2023-02-23T04:40:55;8.10;99.90
38582;DHT22;24349;53.720;10.014;2023-02-23T04:43:21;8.10;99.90
38582;DHT22;24349;53.720;10.014;2023-02-23T04:45:46;8.00;99.90
38582;DHT22;24349;53.720;10.014;2023-02-23T04:48:12;8.10;99.90
38582;DHT22;24349;53.720;10.014;2023-02-23T04:50:38;8.00;99.90
38582;DHT22;24349;53.720;10.014;2023-02-23T04:53:04;8.00;99.90
38582;DHT22;24349;53.720;10.014;2023-02-23T04:55:30;8.10;99.90
38582;DHT22;24349;53.720;10.014;2023-02-23T04:57:58;8.00;99.90
38582;DHT22;24349;53.720;10.014;2023-02-23T05:00:25;7.90;99.90
38582;DHT22;24349;53.720;10.014;2023-02-23T05:02:51;7.90;99.90
38582;DHT22;24349;53.720;10.014;2023-02-23T05:05:16;8.00;99.90
38582;DHT22;24349;53.720;10.014;2023-02-23T05:07:42;8.00;99.90
38582;DHT22;24349;53.720;10.014;2023-02-23T05:10:09;8.00;99.90
38582;DHT22;24349;53.720;10.014;2023-02-23T05:12:35;8.10;99.90
38582;DHT22;24349;53.720;10.014;2023-02-23T05:15:01;8.10;99.90
38582;DHT22;24349;53.720;10.014;2023-02-23T05:17:26;8.10;99.90
38582;DHT22;24349;53.720;10.014;2023-02-23T05:19:52;8.20;99.90
38582;DHT22;24349;53.720;10.014;2023-02-23T05:22:18;8.20;99.90
38582;DHT22;24349;53.720;10.014;2023-02-23T05:24:43;8.20;99.90
38582;DHT22;24349;53.720;10.014;2023-02-23T05:27:10;8.10;99.90
38582;DHT22;24349;53.720;10.014;2023-02-23T05:29:38;8.20;99.90
38582;DHT22;24349;53.720;10.014;2023-02-23T05:32:04;8.20;99.90
38582;DHT22;24349;53.720;10.014;2023-02-23T05:34:29;8.20;99.90
38582;DHT22;24349;53.720;10.014;2023-02-23T05:36:55;8.20;99.90
38582;DHT22;24349;53.720;10.014;2023-02-23T05:39:20;8.30;99.90
38582;DHT22;24349;53.720;10.014;2023-02-23T05:41:46;8.40;99.90
38582;DHT22;24349;53.720;10.014;2023-02-23T05:44:12;8.30;99.90
38582;DHT22;24349;53.720;10.014;2023-02-23T05:46:38;8.20;99.90
38582;DHT22;24349;53.720;10.014;2023-02-23T05:49:03;8.20;99.90
38582;DHT22;24349;53.720;10.014;2023-02-23T05:51:31;8.20;99.90
38582;DHT22;24349;53.720;10.014;2023-02-23T05:53:57;8.30;99.90
38582;DHT22;24349;53.720;10.014;2023-02-23T05:56:22;8.40;99.90
38582;DHT22;24349;53.720;10.014;2023-02-23T05:58:50;8.30;99.90
38582;DHT22;24349;53.720;10.014;2023-02-23T06:01:17;8.30;99.90
38582;DHT22;24349;53.720;10.014;2023-02-23T06:03:44;8.30;99.90
38582;DHT22;24349;53.720;10.014;2023-02-23T06:06:10;8.40;99.90
38582;DHT22;24349;53.720;10.014;2023-02-23T06:08:35;8.40;99.90
38582;DHT22;24349;53.720;10.014;2023-02-23T06:11:02;8.40;99.90
38582;DHT22;24349;53.720;10.014;2023-02-23T06:13:28;8.30;99.90
38582;DHT22;24349;53.720;10.014;2023-02-23T06:15:54;8.30;99.90
38582;DHT22;24349;53.720;10.014;2023-02-23T06:18:19;8.30;99.90
38582;DHT22;24349;53.720;10.014;2023-02-23T06:20:46;8.20;99.90
38582;DHT22;24349;53.720;10.014;2023-02-23T06:23:12;8.30;99.90
38582;DHT22;24349;53.720;10.014;2023-02-23T06:25:40;8.30;99.90
38582;DHT22;24349;53.720;10.014;2023-02-23T06:28:07;8.30;99.90
38582;DHT22;24349;53.720;10.014;2023-02-23T06:30:33;8.20;99.90
38582;DHT22;24349;53.720;10.014;2023-02-23T06:32:59;8.20;99.90
38582;DHT22;24349;53.720;10.014;2023-02-23T06:35:25;8.10;99.90
38582;DHT22;24349;53.720;10.014;2023-02-23T06:37:51;8.10;99.90
38582;DHT22;24349;53.720;10.014;2023-02-23T06:40:18;8.10;99.90
38582;DHT22;24349;53.720;10.014;2023-02-23T06:42:44;8.00;99.90
38582;DHT22;24349;53.720;10.014;2023-02-23T06:45:10;8.00;99.90
38582;DHT22;24349;53.720;10.014;2023-02-23T06:47:35;8.00;99.90
38582;DHT22;24349;53.720;10.014;2023-02-23T06:50:01;8.00;99.90
38582;DHT22;24349;53.720;10.014;2023-02-23T06:52:27;8.20;99.90
38582;DHT22;24349;53.720;10.014;2023-02-23T06:54:53;8.20;99.90
38582;DHT22;24349;53.720;10.014;2023-02-23T06:57:18;8.20;99.90
38582;DHT22;24349;53.720;10.014;2023-02-23T06:59:46;8.10;99.90
38582;DHT22;24349;53.720;10.014;2023-02-23T07:02:12;7.90;99.90
38582;DHT22;24349;53.720;10.014;2023-02-23T07:04:38;7.90;99.90
38582;DHT22;24349;53.720;10.014;2023-02-23T07:07:04;7.90;99.90
38582;DHT22;24349;53.720;10.014;2023-02-23T07:09:30;7.90;99.90
38582;DHT22;24349;53.720;10.014;2023-02-23T07:11:55;8.00;99.90
38582;DHT22;24349;53.720;10.014;2023-02-23T07:14:21;8.00;99.90
38582;DHT22;24349;53.720;10.014;2023-02-23T07:16:47;7.90;99.90
38582;DHT22;24349;53.720;10.014;2023-02-23T07:19:12;8.00;99.90
38582;DHT22;24349;53.720;10.014;2023-02-23T07:21:38;8.00;99.90
38582;DHT22;24349;53.720;10.014;2023-02-23T07:24:04;8.00;99.90
38582;DHT22;24349;53.720;10.014;2023-02-23T07:26:31;8.00;99.90
38582;DHT22;24349;53.720;10.014;2023-02-23T07:28:58;8.00;99.90
38582;DHT22;24349;53.720;10.014;2023-02-23T07:31:24;8.00;99.90
38582;DHT22;24349;53.720;10.014;2023-02-23T07:33:53;8.00;99.90
38582;DHT22;24349;53.720;10.014;2023-02-23T07:36:20;8.10;99.90
38582;DHT22;24349;53.720;10.014;2023-02-23T07:38:46;8.20;99.90
38582;DHT22;24349;53.720;10.014;2023-02-23T07:41:11;8.20;99.90
38582;DHT22;24349;53.720;10.014;2023-02-23T07:43:37;8.10;99.90
38582;DHT22;24349;53.720;10.014;2023-02-23T07:46:03;8.20;99.90
38582;DHT22;24349;53.720;10.014;2023-02-23T07:48:29;8.20;99.90
38582;DHT22;24349;53.720;10.014;2023-02-23T07:50:55;8.20;99.90
38582;DHT22;24349;53.720;10.014;2023-02-23T07:53:20;8.30;99.90
38582;DHT22;24349;53.720;10.014;2023-02-23T07:55:57;8.30;99.90
38582;DHT22;24349;53.720;10.014;2023-02-23T07:58:23;8.30;99.90
38582;DHT22;24349;53.720;10.014;2023-02-23T08:00:49;8.40;99.90
38582;DHT22;24349;53.720;10.014;2023-02-23T08:03:14;8.30;99.90
38582;DHT22;24349;53.720;10.014;2023-02-23T08:05:40;8.30;99.90
38582;DHT22;24349;53.720;10.014;2023-02-23T08:08:06;8.40;99.90
38582;DHT22;24349;53.720;10.014;2023-02-23T08:10:31;8.30;99.90
38582;DHT22;24349;53.720;10.014;2023-02-23T08:12:57;8.30;99.90
38582;DHT22;24349;53.720;10.014;2023-02-23T08:15:23;8.30;99.90
38582;DHT22;24349;53.720;10.014;2023-02-23T08:17:49;8.20;99.90
38582;DHT22;24349;53.720;10.014;2023-02-23T08:20:15;8.30;99.90
38582;DHT22;24349;53.720;10.014;2023-02-23T08:22:41;8.30;99.90
38582;DHT22;24349;53.720;10.014;2023-02-23T08:25:08;8.30;99.90
38582;DHT22;24349;53.720;10.014;2023-02-23T08:27:35;8.30;99.90
38582;DHT22;24349;53.720;10.014;2023-02-23T08:30:01;8.30;99.90
38582;DHT22;24349;53.720;10.014;2023-02-23T08:32:29;8.30;99.90
38582;DHT22;24349;53.720;10.014;2023-02-23T08:34:59;8.30;99.90
38582;DHT22;24349;53.720;10.014;2023-02-23T08:37:29;8.30;99.90
38582;DHT22;24349;53.720;10.014;2023-02-23T08:39:56;8.30;99.90
38582;DHT22;24349;53.720;10.014;2023-02-23T08:42:22;8.30;99.90
38582;DHT22;24349;53.720;10.014;2023-02-23T08:44:47;8.30;99.90
38582;DHT22;24349;53.720;10.014;2023-02-23T08:47:14;8.20;99.90
38582;DHT22;24349;53.720;10.014;2023-02-23T08:49:46;8.20;99.90
38582;DHT22;24349;53.720;10.014;2023-02-23T08:52:12;8.20;99.90
38582;DHT22;24349;53.720;10.014;2023-02-23T08:54:38;8.20;99.90
38582;DHT22;24349;53.720;10.014;2023-02-23T08:57:03;8.20;99.90
38582;DHT22;24349;53.720;10.014;2023-02-23T08:59:29;8.20;99.90
38582;DHT22;24349;53.720;10.014;2023-02-23T09:01:55;8.30;99.90
38582;DHT22;24349;53.720;10.014;2023-02-23T09:04:20;8.30;99.90
38582;DHT22;24349;53.720;10.014;2023-02-23T09:06:46;8.30;99.90
38582;DHT22;24349;53.720;10.014;2023-02-23T09:09:12;8.30;99.90
38582;DHT22;24349;53.720;10.014;2023-02-23T09:11:39;8.20;99.90
38582;DHT22;24349;53.720;10.014;2023-02-23T09:14:04;8.10;99.90
38582;DHT22;24349;53.720;10.014;2023-02-23T09:16:30;8.00;99.90
38582;DHT22;24349;53.720;10.014;2023-02-23T09:18:56;8.00;99.90
38582;DHT22;24349;53.720;10.014;2023-02-23T09:21:26;7.90;99.90
38582;DHT22;24349;53.720;10.014;2023-02-23T09:23:53;7.80;99.90
38582;DHT22;24349;53.720;10.014;2023-02-23T09:26:21;7.70;99.90
38582;DHT22;24349;53.720;10.014;2023-02-23T09:28:47;7.70;99.90
38582;DHT22;24349;53.720;10.014;2023-02-23T09:31:15;7.70;99.90
38582;DHT22;24349;53.720;10.014;2023-02-23T09:33:42;7.70;99.90
38582;DHT22;24349;53.720;10.014;2023-02-23T09:36:12;7.80;99.90
38582;DHT22;24349;53.720;10.014;2023-02-23T09:38:41;7.90;99.90
38582;DHT22;24349;53.720;10.014;2023-02-23T09:43:58;7.90;99.90
38582;DHT22;24349;53.720;10.014;2023-02-23T09:46:40;7.90;99.90
38582;DHT22;24349;53.720;10.014;2023-02-23T09:49:14;8.00;99.90
38582;DHT22;24349;53.720;10.014;2023-02-23T09:51:44;8.00;99.90
38582;DHT22;24349;53.720;10.014;2023-02-23T09:54:12;8.10;99.90
38582;DHT22;24349;53.720;10.014;2023-02-23T09:56:42;8.10;99.90
38582;DHT22;24349;53.720;10.014;2023-02-23T09:59:14;8.10;99.90
38582;DHT22;24349;53.720;10.014;2023-02-23T10:01:59;8.10;99.90
38582;DHT22;24349;53.720;10.014;2023-02-23T10:04:55;8.10;99.90
38582;DHT22;24349;53.720;10.014;2023-02-23T10:26:25;8.30;99.90
38582;DHT22;24349;53.720;10.014;2023-02-23T10:28:54;8.30;99.90
38582;DHT22;24349;53.720;10.014;2023-02-23T10:33:54;8.10;99.90
38582;DHT22;24349;53.720;10.014;2023-02-23T10:36:37;8.20;99.90
38582;DHT22;24349;53.720;10.014;2023-02-23T10:39:07;8.20;99.90
38582;DHT22;24349;53.720;10.014;2023-02-23T10:41:34;8.30;99.90
38582;DHT22;24349;53.720;10.014;2023-02-23T10:44:01;8.40;99.90
38582;DHT22;24349;53.720;10.014;2023-02-23T10:46:35;8.40;99.90
38582;DHT22;24349;53.720;10.014;2023-02-23T10:49:02;8.40;99.90
38582;DHT22;24349;53.720;10.014;2023-02-23T10:51:32;8.40;99.90
38582;DHT22;24349;53.720;10.014;2023-02-23T10:54:33;8.40;99.90
38582;DHT22;24349;53.720;10.014;2023-02-23T10:56:59;8.30;99.90
38582;DHT22;24349;53.720;10.014;2023-02-23T10:59:25;8.40;99.90
38582;DHT22;24349;53.720;10.014;2023-02-23T11:01:51;8.40;99.90
38582;DHT22;24349;53.720;10.014;2023-02-23T11:04:29;8.40;99.90
38582;DHT22;24349;53.720;10.014;2023-02-23T11:07:15;8.30;99.90
38582;DHT22;24349;53.720;10.014;2023-02-23T11:09:41;8.20;99.90
38582;DHT22;24349;53.720;10.014;2023-02-23T11:12:36;8.20;99.90
38582;DHT22;24349;53.720;10.014;2023-02-23T11:15:28;8.30;99.90
38582;DHT22;24349;53.720;10.014;2023-02-23T11:17:56;8.20;99.90
38582;DHT22;24349;53.720;10.014;2023-02-23T11:20:30;8.30;99.90
38582;DHT22;24349;53.720;10.014;2023-02-23T11:25:45;8.60;99.90
38582;DHT22;24349;53.720;10.014;2023-02-23T11:28:32;8.50;99.90
38582;DHT22;24349;53.720;10.014;2023-02-23T11:31:17;8.70;99.90
38582;DHT22;24349;53.720;10.014;2023-02-23T11:33:44;8.80;99.90
38582;DHT22;24349;53.720;10.014;2023-02-23T11:36:27;8.80;99.90
38582;DHT22;24349;53.720;10.014;2023-02-23T11:41:30;8.90;99.90
38582;DHT22;24349;53.720;10.014;2023-02-23T11:43:58;8.90;99.90
38582;DHT22;24349;53.720;10.014;2023-02-23T11:46:25;9.00;99.90
38582;DHT22;24349;53.720;10.014;2023-02-23T11:48:57;8.90;99.90
38582;DHT22;24349;53.720;10.014;2023-02-23T11:51:32;8.90;99.90
38582;DHT22;24349;53.720;10.014;2023-02-23T11:53:59;8.90;99.90
38582;DHT22;24349;53.720;10.014;2023-02-23T11:56:27;8.90;99.90
38582;DHT22;24349;53.720;10.014;2023-02-23T11:58:58;8.80;99.90
38582;DHT22;24349;53.720;10.014;2023-02-23T12:01:39;8.60;99.90
38582;DHT22;24349;53.720;10.014;2023-02-23T12:04:26;8.60;99.90
38582;DHT22;24349;53.720;10.014;2023-02-23T12:07:26;8.70;99.90
38582;DHT22;24349;53.720;10.014;2023-02-23T12:10:01;8.90;99.90
38582;DHT22;24349;53.720;10.014;2023-02-23T12:12:28;8.90;99.90
38582;DHT22;24349;53.720;10.014;2023-02-23T12:15:03;9.00;99.90
38582;DHT22;24349;53.720;10.014;2023-02-23T12:17:39;9.10;99.90
38582;DHT22;24349;53.720;10.014;2023-02-23T12:20:20;9.00;99.90
38582;DHT22;24349;53.720;10.014;2023-02-23T12:22:52;8.90;99.90
38582;DHT22;24349;53.720;10.014;2023-02-23T12:25:24;8.80;99.90
38582;DHT22;24349;53.720;10.014;2023-02-23T12:28:16;8.80;99.90
38582;DHT22;24349;53.720;10.014;2023-02-23T12:30:52;8.90;99.90
38582;DHT22;24349;53.720;10.014;2023-02-23T12:33:28;8.80;99.90
38582;DHT22;24349;53.720;10.014;2023-02-23T12:41:47;9.00;99.90
38582;DHT22;24349;53.720;10.014;2023-02-23T12:44:40;9.10;99.90
38582;DHT22;24349;53.720;10.014;2023-02-23T12:47:31;9.00;99.90
38582;DHT22;24349;53.720;10.014;2023-02-23T12:52:57;9.00;99.90
38582;DHT22;24349;53.720;10.014;2023-02-23T12:55:50;9.00;99.90
38582;DHT22;24349;53.720;10.014;2023-02-23T12:58:28;9.00;99.90
38582;DHT22;24349;53.720;10.014;2023-02-23T13:01:05;9.00;99.90
38582;DHT22;24349;53.720;10.014;2023-02-23T13:03:58;9.10;99.90
38582;DHT22;24349;53.720;10.014;2023-02-23T13:07:11;9.10;99.90
38582;DHT22;24349;53.720;10.014;2023-02-23T13:09:33;8.90;99.90
38582;DHT22;24349;53.720;10.014;2023-02-23T13:15:01;9.00;99.90
38582;DHT22;24349;53.720;10.014;2023-02-23T13:17:47;9.00;99.90
38582;DHT22;24349;53.720;10.014;2023-02-23T13:23:09;9.20;99.90
38582;DHT22;24349;53.720;10.014;2023-02-23T13:31:05;9.10;99.90
38582;DHT22;24349;53.720;10.014;2023-02-23T13:33:38;9.10;99.90
38582;DHT22;24349;53.720;10.014;2023-02-23T13:36:04;9.10;99.90
38582;DHT22;24349;53.720;10.014;2023-02-23T13:41:39;9.10;99.90
38582;DHT22;24349;53.720;10.014;2023-02-23T13:44:22;9.10;99.90
38582;DHT22;24349;53.720;10.014;2023-02-23T13:52:32;9.10;99.90
38582;DHT22;24349;53.720;10.014;2023-02-23T13:55:02;9.10;99.90
38582;DHT22;24349;53.720;10.014;2023-02-23T13:57:29;9.10;99.90
38582;DHT22;24349;53.720;10.014;2023-02-23T13:59:56;9.10;99.90
38582;DHT22;24349;53.720;10.014;2023-02-23T14:02:37;9.00;99.90
38582;DHT22;24349;53.720;10.014;2023-02-23T14:05:17;9.00;99.90
38582;DHT22;24349;53.720;10.014;2023-02-23T14:07:46;9.00;99.90
38582;DHT22;24349;53.720;10.014;2023-02-23T14:10:24;8.80;99.90
38582;DHT22;24349;53.720;10.014;2023-02-23T14:25:51;8.80;99.90
38582;DHT22;24349;53.720;10.014;2023-02-23T14:41:21;8.90;99.90
38582;DHT22;24349;53.720;10.014;2023-02-23T14:44:26;9.00;99.90
38582;DHT22;24349;53.720;10.014;2023-02-23T14:47:05;9.00;99.90
38582;DHT22;24349;53.720;10.014;2023-02-23T14:49:36;9.00;99.90
38582;DHT22;24349;53.720;10.014;2023-02-23T14:52:22;9.00;99.90
38582;DHT22;24349;53.720;10.014;2023-02-23T14:54:49;9.00;99.90
38582;DHT22;24349;53.720;10.014;2023-02-23T14:57:20;9.10;99.90
38582;DHT22;24349;53.720;10.014;2023-02-23T14:59:55;9.00;99.90
38582;DHT22;24349;53.720;10.014;2023-02-23T15:02:23;8.90;99.90
38582;DHT22;24349;53.720;10.014;2023-02-23T15:04:49;9.00;99.90
38582;DHT22;24349;53.720;10.014;2023-02-23T15:07:20;9.00;99.90
38582;DHT22;24349;53.720;10.014;2023-02-23T15:09:51;8.90;99.90
38582;DHT22;24349;53.720;10.014;2023-02-23T15:12:27;8.90;99.90
38582;DHT22;24349;53.720;10.014;2023-02-23T15:15:01;8.80;99.90
38582;DHT22;24349;53.720;10.014;2023-02-23T15:17:30;8.80;99.90
38582;DHT22;24349;53.720;10.014;2023-02-23T15:20:03;8.80;99.90
38582;DHT22;24349;53.720;10.014;2023-02-23T15:22:35;8.70;99.90
38582;DHT22;24349;53.720;10.014;2023-02-23T15:25:12;8.70;99.90
38582;DHT22;24349;53.720;10.014;2023-02-23T15:27:40;8.70;99.90
38582;DHT22;24349;53.720;10.014;2023-02-23T15:30:27;8.60;99.90
38582;DHT22;24349;53.720;10.014;2023-02-23T15:33:13;8.60;99.90
38582;DHT22;24349;53.720;10.014;2023-02-23T15:35:43;8.50;99.90
38582;DHT22;24349;53.720;10.014;2023-02-23T15:38:14;8.50;99.90
38582;DHT22;24349;53.720;10.014;2023-02-23T15:40:41;8.50;99.90
38582;DHT22;24349;53.720;10.014;2023-02-23T15:43:09;8.50;99.90
38582;DHT22;24349;53.720;10.014;2023-02-23T15:45:38;8.40;99.90
38582;DHT22;24349;53.720;10.014;2023-02-23T15:48:15;8.40;99.90
38582;DHT22;24349;53.720;10.014;2023-02-23T15:50:44;8.40;99.90
38582;DHT22;24349;53.720;10.014;2023-02-23T15:53:37;8.40;99.90
38582;DHT22;24349;53.720;10.014;2023-02-23T15:56:12;8.40;99.90
38582;DHT22;24349;53.720;10.014;2023-02-23T15:58:40;8.40;99.90
38582;DHT22;24349;53.720;10.014;2023-02-23T16:01:19;8.40;99.90
38582;DHT22;24349;53.720;10.014;2023-02-23T16:04:15;8.30;99.90
38582;DHT22;24349;53.720;10.014;2023-02-23T16:06:54;8.30;99.90
38582;DHT22;24349;53.720;10.014;2023-02-23T16:09:30;8.40;99.90
38582;DHT22;24349;53.720;10.014;2023-02-23T16:14:53;8.30;99.90
38582;DHT22;24349;53.720;10.014;2023-02-23T16:20:29;8.00;99.90
38582;DHT22;24349;53.720;10.014;2023-02-23T16:23:00;7.70;99.90
38582;DHT22;24349;53.720;10.014;2023-02-23T16:25:28;7.50;99.90
38582;DHT22;24349;53.720;10.014;2023-02-23T16:28:02;7.50;99.90
38582;DHT22;24349;53.720;10.014;2023-02-23T16:33:19;7.30;99.90
38582;DHT22;24349;53.720;10.014;2023-02-23T16:35:48;7.30;99.90
38582;DHT22;24349;53.720;10.014;2023-02-23T16:38:24;7.20;99.90
38582;DHT22;24349;53.720;10.014;2023-02-23T16:40:51;7.20;99.90
38582;DHT22;24349;53.720;10.014;2023-02-23T16:43:17;7.20;99.90
38582;DHT22;24349;53.720;10.014;2023-02-23T16:45:42;7.10;99.90
38582;DHT22;24349;53.720;10.014;2023-02-23T16:48:16;7.00;99.90
38582;DHT22;24349;53.720;10.014;2023-02-23T16:50:43;6.90;99.90
38582;DHT22;24349;53.720;10.014;2023-02-23T16:53:10;6.90;99.90
38582;DHT22;24349;53.720;10.014;2023-02-23T16:55:39;6.90;99.90
38582;DHT22;24349;53.720;10.014;2023-02-23T16:58:25;6.80;99.90
38582;DHT22;24349;53.720;10.014;2023-02-23T17:00:52;6.80;99.90
38582;DHT22;24349;53.720;10.014;2023-02-23T17:03:21;6.70;99.90
38582;DHT22;24349;53.720;10.014;2023-02-23T17:05:47;6.60;99.90
38582;DHT22;24349;53.720;10.014;2023-02-23T17:08:13;6.50;99.90
38582;DHT22;24349;53.720;10.014;2023-02-23T17:10:39;6.50;99.90
38582;DHT22;24349;53.720;10.014;2023-02-23T17:13:17;6.50;99.90
38582;DHT22;24349;53.720;10.014;2023-02-23T17:15:45;6.50;99.90
38582;DHT22;24349;53.720;10.014;2023-02-23T17:18:15;6.50;99.90
38582;DHT22;24349;53.720;10.014;2023-02-23T17:20:40;6.50;99.90
38582;DHT22;24349;53.720;10.014;2023-02-23T17:23:06;6.50;99.90
38582;DHT22;24349;53.720;10.014;2023-02-23T17:25:32;6.50;99.90
38582;DHT22;24349;53.720;10.014;2023-02-23T17:27:59;6.40;99.90
38582;DHT22;24349;53.720;10.014;2023-02-23T17:30:25;6.50;99.90
38582;DHT22;24349;53.720;10.014;2023-02-23T17:32:53;6.50;99.90
38582;DHT22;24349;53.720;10.014;2023-02-23T17:35:19;6.50;99.90
38582;DHT22;24349;53.720;10.014;2023-02-23T17:37:44;6.50;99.90
38582;DHT22;24349;53.720;10.014;2023-02-23T17:40:16;6.50;99.90
38582;DHT22;24349;53.720;10.014;2023-02-23T17:42:43;6.50;99.90
38582;DHT22;24349;53.720;10.014;2023-02-23T17:45:09;6.40;99.90
38582;DHT22;24349;53.720;10.014;2023-02-23T17:47:35;6.40;99.90
38582;DHT22;24349;53.720;10.014;2023-02-23T17:50:04;6.30;99.90
38582;DHT22;24349;53.720;10.014;2023-02-23T17:52:30;6.30;99.90
38582;DHT22;24349;53.720;10.014;2023-02-23T17:54:55;6.20;99.90
38582;DHT22;24349;53.720;10.014;2023-02-23T17:57:24;6.20;99.90
38582;DHT22;24349;53.720;10.014;2023-02-23T17:59:51;6.10;99.90
38582;DHT22;24349;53.720;10.014;2023-02-23T18:02:22;6.10;99.90